Time;durP1;ratioP1;P1;durP2;ratioP2;P2;SDS_P1;SDS_P2;PMS_P1;PMS_P2;Temp;Humidity;BMP_temperature;BMP_pressure;BME280_temperature;BME280_humidity;BME280_pressure;Samples;Min_cycle;Max_cycle;Signal;HPM_P1;HPM_P2
2023/02/25 00:01:30;;;;;;;6.82;1.50;;;6.20;88.70;;;;;;5072165;28;20267;-71
2023/02/25 00:03:58;;;;;;;1.92;1.17;;;6.10;87.90;;;;;;5058135;28;20272;-70
2023/02/25 00:06:25;;;;;;;3.65;1.52;;;6.10;87.80;;;;;;5052276;28;20526;-70
2023/02/25 00:08:54;;;;;;;2.65;1.15;;;6.10;87.30;;;;;;5063566;28;20219;-71
2023/02/25 00:11:22;;;;;;;2.55;1.10;;;6.00;87.50;;;;;;5072482;28;20275;-70
2023/02/25 00:13:51;;;;;;;3.42;1.75;;;5.80;88.50;;;;;;5059079;28;20218;-70
2023/02/25 00:16:19;;;;;;;2.17;1.20;;;5.70;89.00;;;;;;5051980;28;20194;-70
2023/02/25 00:18:46;;;;;;;1.90;1.00;;;5.70;88.70;;;;;;5061791;28;20296;-70
2023/02/25 00:21:15;;;;;;;3.60;1.80;;;5.60;89.00;;;;;;5072379;28;20197;-71
2023/02/25 00:23:43;;;;;;;4.93;1.15;;;5.50;90.20;;;;;;5060397;28;20633;-70
2023/02/25 00:26:11;;;;;;;3.90;1.63;;;5.40;90.40;;;;;;5051923;28;20280;-70
2023/02/25 00:28:40;;;;;;;2.95;0.90;;;5.30;90.30;;;;;;5051867;28;20277;-71
2023/02/25 00:33:51;;;;;;;2.20;1.20;;;5.10;90.70;;;;;;5051522;28;20213;-70
2023/02/25 00:36:20;;;;;;;2.40;1.23;;;5.00;91.80;;;;;;5051722;28;20353;-70
2023/02/25 00:38:48;;;;;;;2.78;1.15;;;4.90;92.00;;;;;;5051626;28;20224;-70
2023/02/25 00:41:17;;;;;;;2.40;0.95;;;4.90;92.40;;;;;;5052173;28;20222;-70
2023/02/25 00:43:49;;;;;;;3.75;1.90;;;4.90;92.80;;;;;;5050813;28;20194;-70
2023/02/25 00:46:18;;;;;;;2.53;1.20;;;4.80;93.10;;;;;;5052045;28;20216;-70
2023/02/25 00:48:45;;;;;;;2.28;1.10;;;4.90;93.20;;;;;;5061424;28;20578;-70
2023/02/25 00:51:14;;;;;;;2.75;1.25;;;4.90;93.30;;;;;;5072128;28;20588;-70
2023/02/25 00:53:42;;;;;;;3.15;1.23;;;5.00;93.30;;;;;;5061274;28;20282;-70
2023/02/25 00:56:13;;;;;;;1.90;0.93;;;5.00;93.40;;;;;;5052012;28;20274;-70
2023/02/25 00:58:40;;;;;;;2.03;1.00;;;5.10;93.40;;;;;;5055227;28;20535;-70
2023/02/25 01:01:20;;;;;;;2.20;1.13;;;5.10;93.30;;;;;;5071812;28;20217;-70
2023/02/25 01:03:48;;;;;;;2.47;0.93;;;5.10;93.00;;;;;;5070894;28;20284;-70
2023/02/25 01:06:16;;;;;;;2.05;0.95;;;5.20;92.80;;;;;;5071901;28;20194;-70
2023/02/25 01:08:43;;;;;;;2.65;0.95;;;5.20;92.30;;;;;;5062781;28;20737;-70
2023/02/25 01:11:13;;;;;;;2.40;0.90;;;5.10;92.10;;;;;;5052100;28;20536;-70
2023/02/25 01:13:40;;;;;;;2.35;1.10;;;5.10;91.80;;;;;;5058256;28;20277;-71
2023/02/25 01:16:13;;;;;;;2.13;1.20;;;5.10;91.60;;;;;;5071825;28;20190;-70
2023/02/25 01:18:42;;;;;;;2.17;1.10;;;5.00;91.50;;;;;;5072346;28;20228;-70
2023/02/25 01:21:16;;;;;;;3.05;1.60;;;5.00;91.40;;;;;;5075255;28;20656;-69
2023/02/25 01:23:46;;;;;;;2.67;1.13;;;5.00;91.20;;;;;;5074937;28;20192;-70
2023/02/25 01:26:14;;;;;;;2.53;1.40;;;4.90;91.20;;;;;;5075248;28;20194;-71
2023/02/25 01:28:41;;;;;;;3.15;1.63;;;4.80;91.20;;;;;;5073843;28;20209;-70
2023/02/25 01:31:17;;;;;;;3.08;1.60;;;4.80;91.10;;;;;;5075474;28;20634;-70
2023/02/25 01:33:45;;;;;;;3.25;1.85;;;4.80;91.10;;;;;;5067699;28;20645;-70
2023/02/25 01:36:12;;;;;;;3.80;2.00;;;4.80;91.20;;;;;;5055085;28;20277;-71
2023/02/25 01:38:40;;;;;;;3.90;1.98;;;4.80;91.10;;;;;;5060718;28;20656;-70
2023/02/25 01:41:07;;;;;;;3.00;1.40;;;4.80;91.10;;;;;;5074817;28;20281;-71
2023/02/25 01:43:34;;;;;;;3.10;1.58;;;4.80;91.20;;;;;;5075321;28;20190;-70
2023/02/25 01:46:02;;;;;;;3.67;1.77;;;4.80;91.10;;;;;;5075185;28;20194;-70
2023/02/25 01:48:31;;;;;;;3.97;1.55;;;4.80;91.00;;;;;;5069285;28;20278;-69
2023/02/25 01:51:03;;;;;;;2.35;1.10;;;4.80;91.00;;;;;;5055048;28;20236;-70
2023/02/25 01:53:33;;;;;;;2.83;1.13;;;4.80;91.00;;;;;;5054577;28;20182;-71
2023/02/25 01:56:03;;;;;;;2.17;1.20;;;4.90;91.00;;;;;;5055128;28;20190;-70
2023/02/25 01:58:32;;;;;;;2.25;1.15;;;4.80;90.90;;;;;;5054652;28;20183;-71
2023/02/25 02:00:59;;;;;;;2.13;1.05;;;4.90;90.90;;;;;;5054599;28;20254;-70
2023/02/25 02:03:30;;;;;;;4.55;1.45;;;4.90;91.10;;;;;;5055079;28;20194;-69
2023/02/25 02:06:06;;;;;;;2.47;1.25;;;4.90;91.10;;;;;;5055056;28;20221;-69
2023/02/25 02:08:35;;;;;;;3.92;1.45;;;4.80;90.90;;;;;;5054200;28;20182;-70
2023/02/25 02:11:02;;;;;;;2.75;1.30;;;4.70;90.70;;;;;;5054441;28;20296;-70
2023/02/25 02:13:30;;;;;;;2.80;1.40;;;4.70;90.70;;;;;;5058415;28;20621;-69
2023/02/25 02:16:14;;;;;;;2.35;1.20;;;4.70;90.80;;;;;;5073815;28;20193;-69
2023/02/25 02:18:49;;;;;;;2.35;1.35;;;4.60;90.90;;;;;;5068698;28;20195;-70
2023/02/25 02:21:43;;;;;;;1.95;1.02;;;4.60;90.90;;;;;;5063258;28;20297;-69
2023/02/25 02:24:40;;;;;;;2.88;1.20;;;4.60;91.10;;;;;;5064909;28;20182;-69
2023/02/25 02:27:10;;;;;;;3.15;1.35;;;4.60;91.00;;;;;;5053731;28;20248;-69
2023/02/25 02:30:12;;;;;;;2.10;0.93;;;4.60;91.40;;;;;;5053238;28;20193;-70
2023/02/25 02:32:47;;;;;;;2.70;1.15;;;4.50;91.30;;;;;;5034308;28;20190;-69
2023/02/25 02:35:22;;;;;;;2.25;1.35;;;4.50;91.40;;;;;;5050096;28;20189;-69
2023/02/25 02:37:58;;;;;;;2.55;1.33;;;4.50;91.40;;;;;;5054352;28;20185;-69
2023/02/25 02:40:38;;;;;;;2.70;1.20;;;4.50;91.50;;;;;;5061607;28;20210;-70
2023/02/25 02:43:15;;;;;;;2.40;1.40;;;4.50;91.40;;;;;;5054216;28;20194;-69
2023/02/25 02:45:48;;;;;;;3.53;1.70;;;4.50;91.50;;;;;;5069921;28;20637;-69
2023/02/25 02:48:21;;;;;;;2.78;1.38;;;4.40;91.60;;;;;;5074257;28;20221;-69
2023/02/25 02:50:52;;;;;;;2.80;0.90;;;4.40;91.80;;;;;;5073976;28;20194;-69
2023/02/25 02:53:25;;;;;;;2.70;1.20;;;4.50;91.70;;;;;;5073872;28;20656;-70
2023/02/25 02:55:55;;;;;;;2.63;1.45;;;4.40;91.40;;;;;;5073793;28;20285;-70
2023/02/25 02:58:27;;;;;;;3.65;1.17;;;4.40;91.60;;;;;;5069994;28;20219;-69
2023/02/25 03:00:59;;;;;;;2.50;1.50;;;4.50;91.60;;;;;;5065195;28;20213;-70
2023/02/25 03:03:35;;;;;;;3.17;1.52;;;4.40;91.60;;;;;;5056371;28;20309;-69
2023/02/25 03:06:09;;;;;;;3.47;1.55;;;4.40;91.80;;;;;;5073545;28;20650;-70
2023/02/25 03:08:44;;;;;;;4.18;1.80;;;4.40;91.80;;;;;;5073474;28;20360;-69
2023/02/25 03:11:11;;;;;;;3.45;1.60;;;4.40;91.70;;;;;;5062903;28;20192;-69
2023/02/25 03:13:42;;;;;;;2.47;1.40;;;4.40;91.60;;;;;;5056756;28;20224;-69
2023/02/25 03:16:18;;;;;;;3.53;1.30;;;4.40;91.30;;;;;;5073257;28;20189;-70
2023/02/25 03:18:53;;;;;;;3.78;2.10;;;4.40;91.60;;;;;;5073383;28;20189;-69
2023/02/25 03:21:25;;;;;;;2.97;1.40;;;4.40;91.60;;;;;;5061544;28;20244;-69
2023/02/25 03:23:53;;;;;;;2.40;1.35;;;4.40;91.80;;;;;;5053453;28;20225;-69
2023/02/25 03:26:24;;;;;;;2.67;1.52;;;4.30;91.90;;;;;;5053309;28;20661;-70
2023/02/25 03:28:51;;;;;;;3.10;1.48;;;4.30;92.10;;;;;;5053021;28;20286;-69
2023/02/25 03:31:22;;;;;;;2.95;1.25;;;4.30;92.10;;;;;;5052434;28;20186;-69
2023/02/25 03:33:54;;;;;;;2.50;1.30;;;4.40;92.20;;;;;;5052914;28;20219;-70
2023/02/25 03:36:26;;;;;;;2.28;1.25;;;4.40;92.20;;;;;;5052792;28;20248;-69
2023/02/25 03:38:58;;;;;;;2.67;1.40;;;4.40;92.20;;;;;;5055602;28;20272;-69
2023/02/25 03:41:30;;;;;;;2.95;1.80;;;4.40;92.00;;;;;;5059421;28;20761;-69
2023/02/25 03:43:59;;;;;;;4.00;1.98;;;4.40;91.80;;;;;;5052076;28;20613;-69
2023/02/25 03:46:28;;;;;;;2.55;1.38;;;4.30;91.70;;;;;;5063546;28;20199;-69
2023/02/25 03:48:58;;;;;;;3.15;1.42;;;4.30;92.10;;;;;;5052384;28;20560;-69
2023/02/25 03:51:30;;;;;;;2.85;1.55;;;4.30;92.20;;;;;;5055195;28;20214;-70
2023/02/25 03:53:57;;;;;;;2.40;1.40;;;4.30;92.10;;;;;;5052933;28;20275;-69
2023/02/25 03:56:24;;;;;;;2.95;1.58;;;4.20;92.30;;;;;;5069031;28;20185;-70
2023/02/25 03:58:51;;;;;;;2.55;1.45;;;4.20;92.40;;;;;;5072728;28;20236;-70
2023/02/25 04:01:23;;;;;;;2.80;1.40;;;4.30;92.30;;;;;;5066763;28;20305;-70
2023/02/25 04:03:50;;;;;;;3.58;1.55;;;4.30;92.40;;;;;;5052740;28;20689;-70
2023/02/25 04:06:21;;;;;;;3.40;1.48;;;4.30;92.50;;;;;;5067573;28;20182;-70
2023/02/25 04:08:48;;;;;;;3.28;1.60;;;4.30;92.40;;;;;;5072564;28;20237;-72
2023/02/25 04:11:16;;;;;;;2.70;1.60;;;4.20;92.20;;;;;;5066380;28;20190;-70
2023/02/25 04:13:43;;;;;;;2.92;1.50;;;4.30;92.30;;;;;;5052616;28;20194;-70
2023/02/25 04:16:10;;;;;;;3.03;1.38;;;4.30;92.30;;;;;;5050072;28;20232;-70
2023/02/25 04:18:37;;;;;;;5.25;2.97;;;4.30;92.20;;;;;;5052443;28;20209;-70
2023/02/25 04:21:05;;;;;;;5.68;2.97;;;4.30;91.80;;;;;;5058697;28;20274;-69
2023/02/25 04:23:34;;;;;;;3.95;2.25;;;4.30;91.80;;;;;;5051590;28;20198;-70
2023/02/25 04:26:01;;;;;;;2.78;1.30;;;4.30;92.00;;;;;;5052276;28;20278;-70
2023/02/25 04:28:28;;;;;;;3.17;1.92;;;4.30;91.60;;;;;;5052292;28;20253;-69
2023/02/25 04:30:55;;;;;;;3.40;1.80;;;4.20;92.00;;;;;;5051018;28;20641;-69
2023/02/25 04:33:22;;;;;;;2.75;1.73;;;4.10;92.30;;;;;;5071817;28;20198;-70
2023/02/25 04:35:50;;;;;;;5.32;1.98;;;4.10;92.00;;;;;;5071360;28;20225;-69
2023/02/25 04:38:17;;;;;;;3.08;1.73;;;4.10;92.40;;;;;;5072329;28;20272;-69
2023/02/25 04:40:45;;;;;;;2.97;1.38;;;4.10;92.20;;;;;;5064190;28;20608;-69
2023/02/25 04:43:12;;;;;;;3.33;1.48;;;4.10;92.30;;;;;;5051567;28;20542;-69
2023/02/25 04:45:39;;;;;;;3.58;1.77;;;4.00;92.80;;;;;;5051613;28;20273;-69
2023/02/25 04:48:06;;;;;;;2.10;1.20;;;4.00;92.60;;;;;;5051850;28;20206;-70
2023/02/25 04:50:33;;;;;;;2.50;1.40;;;3.90;92.70;;;;;;5055570;28;20259;-70
2023/02/25 04:53:02;;;;;;;4.68;1.45;;;3.80;93.10;;;;;;5071771;28;20289;-70
2023/02/25 04:55:29;;;;;;;4.57;1.35;;;3.80;93.10;;;;;;5076022;28;20185;-69
2023/02/25 04:57:58;;;;;;;3.50;2.08;;;3.90;93.30;;;;;;5075835;28;20255;-73
2023/02/25 05:00:26;;;;;;;3.45;1.90;;;3.90;92.80;;;;;;5072829;28;20325;-70
2023/02/25 05:02:53;;;;;;;3.40;1.92;;;3.80;93.00;;;;;;5055336;28;20588;-69
2023/02/25 05:05:20;;;;;;;5.00;1.92;;;3.80;93.50;;;;;;5056395;28;20280;-69
2023/02/25 05:07:48;;;;;;;5.05;2.33;;;3.80;93.70;;;;;;5075403;28;20185;-69
2023/02/25 05:10:15;;;;;;;3.63;1.50;;;3.80;93.70;;;;;;5075146;28;20194;-70
2023/02/25 05:12:42;;;;;;;2.72;1.45;;;3.60;93.90;;;;;;5063789;28;20182;-69
2023/02/25 05:15:12;;;;;;;2.72;1.30;;;3.60;94.20;;;;;;5055336;28;20201;-70
2023/02/25 05:17:39;;;;;;;4.38;1.70;;;3.60;94.60;;;;;;5055385;28;20673;-69
2023/02/25 05:20:11;;;;;;;3.10;1.17;;;3.60;94.60;;;;;;5055375;28;20332;-70
2023/02/25 05:22:38;;;;;;;2.25;1.15;;;3.60;94.90;;;;;;5073719;28;20189;-70
2023/02/25 05:25:06;;;;;;;2.10;1.15;;;3.60;95.00;;;;;;5075450;28;20324;-70
2023/02/25 05:27:34;;;;;;;2.92;1.48;;;3.60;94.60;;;;;;5074836;28;20555;-69
2023/02/25 05:30:01;;;;;;;3.97;1.60;;;3.60;94.70;;;;;;5075369;28;20193;-70
2023/02/25 05:32:30;;;;;;;3.53;2.10;;;3.60;94.60;;;;;;5058054;28;20208;-69
2023/02/25 05:34:57;;;;;;;3.30;2.10;;;3.60;95.40;;;;;;5055146;28;20288;-70
2023/02/25 05:37:24;;;;;;;3.85;2.20;;;3.70;95.10;;;;;;5070852;28;20186;-69
2023/02/25 05:39:51;;;;;;;2.70;1.35;;;3.80;95.10;;;;;;5075087;28;20197;-70
2023/02/25 05:42:18;;;;;;;4.22;2.40;;;3.80;95.00;;;;;;5075016;28;20332;-69
2023/02/25 05:44:45;;;;;;;3.70;1.65;;;3.90;94.80;;;;;;5074960;28;20284;-69
2023/02/25 05:47:13;;;;;;;3.40;1.88;;;3.90;94.60;;;;;;5073306;28;20345;-69
2023/02/25 05:49:42;;;;;;;4.47;2.10;;;3.90;94.70;;;;;;5074338;28;20556;-69
2023/02/25 05:52:09;;;;;;;3.92;1.70;;;4.00;94.50;;;;;;5074053;28;20563;-69
2023/02/25 05:54:36;;;;;;;3.33;1.90;;;4.00;94.30;;;;;;5074708;28;20727;-70
2023/02/25 05:57:04;;;;;;;5.60;2.38;;;4.00;94.30;;;;;;5072659;28;20189;-69
2023/02/25 05:59:31;;;;;;;6.75;3.20;;;4.00;94.10;;;;;;5074507;28;20229;-70
2023/02/25 06:01:59;;;;;;;5.90;3.15;;;4.00;93.80;;;;;;5072944;28;20309;-69
2023/02/25 06:04:26;;;;;;;4.95;2.65;;;4.00;94.00;;;;;;5073869;28;20198;-69
2023/02/25 06:06:55;;;;;;;6.20;2.88;;;4.00;93.90;;;;;;5072608;28;20193;-72
2023/02/25 06:09:22;;;;;;;5.60;2.95;;;4.00;94.00;;;;;;5074266;28;20229;-69
2023/02/25 06:11:49;;;;;;;5.53;2.85;;;4.10;93.60;;;;;;5063425;28;20659;-69
2023/02/25 06:14:17;;;;;;;3.80;2.17;;;4.10;93.50;;;;;;5053981;28;20225;-69
2023/02/25 06:16:44;;;;;;;3.65;1.92;;;4.10;93.20;;;;;;5053967;28;20277;-70
2023/02/25 06:19:13;;;;;;;3.90;2.10;;;4.00;93.50;;;;;;5054366;28;20281;-69
2023/02/25 06:21:40;;;;;;;7.07;5.78;;;4.00;93.80;;;;;;5053534;28;20233;-69
2023/02/25 06:24:10;;;;;;;5.03;3.35;;;4.00;93.80;;;;;;5054426;28;20225;-69
2023/02/25 06:26:41;;;;;;;6.55;3.97;;;4.00;93.70;;;;;;5052886;28;20265;-69
2023/02/25 06:29:09;;;;;;;6.53;3.53;;;4.00;93.70;;;;;;5054085;28;20201;-69
2023/02/25 06:31:36;;;;;;;5.07;3.10;;;4.00;93.90;;;;;;5053559;28;20197;-69
2023/02/25 06:34:04;;;;;;;4.00;2.00;;;4.00;94.20;;;;;;5054351;28;20280;-69
2023/02/25 06:36:32;;;;;;;4.03;1.90;;;4.00;94.00;;;;;;5059499;28;20214;-70
2023/02/25 06:38:59;;;;;;;3.55;1.83;;;4.00;93.60;;;;;;5072399;28;20225;-69
2023/02/25 06:41:28;;;;;;;2.65;1.42;;;4.00;93.80;;;;;;5074235;28;20323;-69
2023/02/25 06:43:55;;;;;;;2.90;1.60;;;4.00;93.90;;;;;;5073898;28;20229;-69
2023/02/25 06:46:24;;;;;;;3.25;1.85;;;4.00;94.10;;;;;;5073853;28;20196;-69
2023/02/25 06:48:53;;;;;;;4.15;2.20;;;4.00;94.20;;;;;;5063959;28;20588;-69
2023/02/25 06:51:20;;;;;;;3.80;2.03;;;4.10;94.40;;;;;;5056660;28;20186;-69
2023/02/25 06:53:47;;;;;;;4.88;2.20;;;4.10;94.00;;;;;;5073576;28;20244;-69
2023/02/25 06:56:17;;;;;;;4.97;3.40;;;4.10;94.10;;;;;;5072923;28;20186;-69
2023/02/25 06:58:45;;;;;;;11.65;4.75;;;4.10;94.10;;;;;;5071853;28;20186;-69
2023/02/25 07:01:13;;;;;;;5.80;3.65;;;4.20;94.30;;;;;;5071016;28;20312;-70
2023/02/25 07:03:42;;;;;;;6.45;3.67;;;4.30;94.30;;;;;;5053310;28;20281;-70
2023/02/25 07:06:09;;;;;;;6.28;4.25;;;4.30;94.00;;;;;;5053057;28;20200;-69
2023/02/25 07:08:36;;;;;;;5.85;4.70;;;4.40;93.90;;;;;;5052981;28;20273;-69
2023/02/25 07:11:25;;;;;;;7.07;4.10;;;4.40;93.60;;;;;;5049777;28;20305;-69
2023/02/25 07:13:54;;;;;;;6.50;4.25;;;4.50;93.40;;;;;;5051239;28;20226;-70
2023/02/25 07:16:21;;;;;;;5.75;3.45;;;4.50;93.20;;;;;;5051498;28;20540;-69
2023/02/25 07:18:49;;;;;;;5.65;3.25;;;4.50;93.00;;;;;;5054546;28;20205;-69
2023/02/25 07:21:17;;;;;;;5.57;3.75;;;4.60;92.80;;;;;;5051496;28;20218;-70
2023/02/25 07:23:45;;;;;;;6.65;3.42;;;4.70;92.80;;;;;;5051427;28;20194;-69
2023/02/25 07:26:13;;;;;;;5.30;3.08;;;4.70;92.60;;;;;;5051441;28;20293;-69
2023/02/25 07:28:41;;;;;;;15.77;5.20;;;4.80;92.60;;;;;;5051663;28;20218;-70
2023/02/25 07:31:12;;;;;;;7.80;4.20;;;4.80;92.40;;;;;;5051005;28;20277;-71
2023/02/25 07:33:40;;;;;;;7.88;3.70;;;4.90;92.40;;;;;;5052012;28;20282;-70
2023/02/25 07:36:08;;;;;;;5.40;3.60;;;4.90;92.20;;;;;;5051235;28;20190;-70
2023/02/25 07:38:34;;;;;;;5.97;4.65;;;4.90;91.80;;;;;;5053518;28;20225;-70
2023/02/25 07:41:04;;;;;;;7.32;3.25;;;4.90;91.60;;;;;;5050713;28;20222;-70
2023/02/25 07:43:31;;;;;;;14.80;8.38;;;4.90;91.40;;;;;;5051463;28;20309;-70
2023/02/25 07:45:58;;;;;;;14.95;8.40;;;4.90;91.00;;;;;;5051148;28;20286;-69
2023/02/25 07:48:27;;;;;;;11.55;6.20;;;4.90;91.30;;;;;;5050619;28;20671;-71
2023/02/25 07:50:55;;;;;;;7.22;5.47;;;4.90;91.50;;;;;;5049789;28;20179;-69
2023/02/25 07:53:23;;;;;;;11.18;4.10;;;4.90;91.20;;;;;;5050586;28;20234;-69
2023/02/25 07:55:50;;;;;;;6.60;4.57;;;4.90;91.10;;;;;;5050589;28;20193;-70
2023/02/25 07:58:17;;;;;;;7.28;4.45;;;4.90;91.10;;;;;;5048397;28;20656;-70
2023/02/25 08:00:46;;;;;;;8.80;4.47;;;4.90;91.10;;;;;;5052573;28;20213;-69
2023/02/25 08:03:13;;;;;;;5.65;3.75;;;4.90;91.20;;;;;;5050892;28;20229;-69
2023/02/25 08:05:41;;;;;;;5.70;3.80;;;4.90;91.10;;;;;;5050443;28;20222;-71
2023/02/25 08:08:08;;;;;;;8.23;4.65;;;4.90;91.20;;;;;;5045618;28;20269;-70
2023/02/25 08:10:36;;;;;;;7.15;4.72;;;4.90;90.80;;;;;;5050751;28;20178;-69
2023/02/25 08:13:03;;;;;;;9.15;4.65;;;4.90;90.90;;;;;;5053911;28;20652;-70
2023/02/25 08:15:31;;;;;;;7.82;6.00;;;4.90;90.90;;;;;;5053366;28;20232;-70
2023/02/25 08:17:57;;;;;;;13.90;6.40;;;5.00;90.70;;;;;;5050302;28;20324;-70
2023/02/25 08:20:24;;;;;;;9.00;5.22;;;4.90;90.80;;;;;;5050621;28;20558;-70
2023/02/25 08:22:55;;;;;;;8.13;5.15;;;4.90;90.80;;;;;;5050523;28;20240;-70
2023/02/25 08:25:22;;;;;;;9.27;6.03;;;4.90;90.70;;;;;;5049580;28;20186;-70
2023/02/25 08:27:49;;;;;;;9.13;6.15;;;4.90;90.90;;;;;;5049790;28;20734;-70
2023/02/25 08:30:17;;;;;;;10.20;6.03;;;4.90;91.00;;;;;;5049362;28;20194;-70
2023/02/25 08:32:44;;;;;;;7.00;4.75;;;4.90;91.00;;;;;;5048570;28;20187;-69
2023/02/25 08:35:11;;;;;;;9.85;7.13;;;4.90;90.90;;;;;;5050143;28;20190;-70
2023/02/25 08:37:38;;;;;;;11.32;6.72;;;4.90;90.80;;;;;;5052041;28;20181;-70
2023/02/25 08:40:09;;;;;;;22.05;19.85;;;4.90;90.90;;;;;;5050507;28;20233;-69
2023/02/25 08:42:38;;;;;;;13.95;9.40;;;4.90;91.20;;;;;;5050557;28;20297;-71
2023/02/25 08:45:06;;;;;;;11.30;8.23;;;4.90;91.40;;;;;;5050260;28;20198;-71
2023/02/25 08:47:33;;;;;;;6.85;4.32;;;4.90;91.40;;;;;;5050446;28;20194;-70
2023/02/25 08:50:00;;;;;;;6.63;5.30;;;5.00;91.30;;;;;;5050100;28;20276;-70
2023/02/25 08:52:32;;;;;;;11.48;5.50;;;5.00;90.90;;;;;;5049547;28;20256;-70
2023/02/25 08:55:00;;;;;;;7.15;4.40;;;5.10;90.70;;;;;;5050061;28;20195;-70
2023/02/25 08:57:30;;;;;;;5.53;3.55;;;5.10;90.10;;;;;;5050053;28;20194;-70
2023/02/25 08:59:57;;;;;;;7.68;4.00;;;5.20;89.80;;;;;;5049156;28;20186;-70
2023/02/25 09:02:24;;;;;;;5.28;3.25;;;5.20;89.00;;;;;;5049633;28;20230;-70
2023/02/25 09:04:51;;;;;;;8.45;3.38;;;5.20;89.10;;;;;;5049780;28;20289;-70
2023/02/25 09:07:24;;;;;;;11.15;5.13;;;5.20;88.80;;;;;;5049913;28;20532;-69
2023/02/25 09:09:52;;;;;;;6.50;3.95;;;5.20;89.00;;;;;;5045758;28;20187;-70
2023/02/25 09:12:19;;;;;;;7.90;4.45;;;5.30;89.20;;;;;;5049815;28;20680;-70
2023/02/25 09:14:49;;;;;;;15.15;6.00;;;5.30;88.30;;;;;;5049843;28;20281;-70
2023/02/25 09:17:16;;;;;;;4.75;3.45;;;5.40;88.10;;;;;;5049552;28;20202;-71
2023/02/25 09:19:43;;;;;;;6.80;4.00;;;5.40;87.80;;;;;;5049683;28;20190;-70
2023/02/25 09:22:11;;;;;;;11.88;4.30;;;5.50;87.40;;;;;;5049522;28;20245;-69
2023/02/25 09:24:38;;;;;;;6.32;4.88;;;5.50;87.30;;;;;;5046407;28;20614;-71
2023/02/25 09:27:06;;;;;;;5.80;3.58;;;5.60;86.50;;;;;;5046207;28;20244;-76
2023/02/25 09:29:34;;;;;;;8.60;3.85;;;5.60;85.80;;;;;;5047754;28;20187;-70
2023/02/25 09:32:03;;;;;;;7.20;3.53;;;5.70;84.40;;;;;;5051291;28;20183;-70
2023/02/25 09:34:32;;;;;;;5.10;3.20;;;5.70;83.70;;;;;;5049233;28;20186;-72
2023/02/25 09:37:00;;;;;;;7.40;4.25;;;5.80;82.90;;;;;;5045885;28;20239;-70
2023/02/25 09:39:27;;;;;;;11.30;3.17;;;5.80;83.00;;;;;;5049296;28;20593;-70
2023/02/25 09:42:00;;;;;;;5.50;3.25;;;5.90;82.10;;;;;;5052305;28;20218;-70
2023/02/25 09:44:30;;;;;;;5.85;4.38;;;5.90;82.60;;;;;;5049036;28;20256;-69
2023/02/25 09:47:04;;;;;;;16.77;9.25;;;5.90;82.50;;;;;;5052684;28;21435;-69
2023/02/25 09:49:36;;;;;;;5.63;3.20;;;6.00;81.80;;;;;;5052603;28;20190;-70
2023/02/25 09:52:12;;;;;;;7.32;4.10;;;6.00;78.30;;;;;;5052892;28;20194;-69
2023/02/25 09:54:44;;;;;;;19.23;15.90;;;5.90;77.10;;;;;;5052425;28;20536;-70
2023/02/25 09:57:17;;;;;;;7.88;5.47;;;6.00;78.70;;;;;;5048947;28;20200;-69
2023/02/25 09:59:45;;;;;;;19.52;10.05;;;5.90;78.40;;;;;;5052677;28;20191;-74
2023/02/25 10:02:27;;;;;;;8.68;5.55;;;5.90;78.00;;;;;;5051030;28;20266;-70
2023/02/25 10:05:08;;;;;;;14.50;9.52;;;5.90;78.10;;;;;;5052009;28;20534;-69
2023/02/25 10:07:41;;;;;;;16.58;10.07;;;5.90;77.60;;;;;;5050379;28;20688;-69
2023/02/25 10:10:15;;;;;;;11.00;7.80;;;5.90;77.30;;;;;;5074397;28;20643;-69
2023/02/25 10:12:54;;;;;;;10.95;5.35;;;5.90;77.30;;;;;;5073998;28;20270;-69
2023/02/25 10:15:32;;;;;;;11.85;7.45;;;5.90;77.60;;;;;;5039178;28;20182;-69
2023/02/25 10:18:15;;;;;;;12.65;8.57;;;5.90;78.50;;;;;;5054350;28;20194;-69
2023/02/25 10:21:08;;;;;;;7.25;4.85;;;5.90;77.90;;;;;;5054351;28;20229;-70
2023/02/25 10:23:59;;;;;;;7.00;4.63;;;5.90;78.30;;;;;;5060285;28;20246;-70
2023/02/25 10:26:31;;;;;;;6.80;4.00;;;5.90;79.40;;;;;;5054516;28;20191;-73
2023/02/25 10:29:04;;;;;;;5.82;3.35;;;5.90;80.50;;;;;;5054337;28;20571;-70
2023/02/25 10:31:31;;;;;;;6.47;3.58;;;5.90;79.40;;;;;;5054265;28;20317;-71
2023/02/25 10:34:14;;;;;;;6.20;2.90;;;5.90;79.60;;;;;;5054315;28;20228;-70
2023/02/25 10:36:46;;;;;;;4.13;2.22;;;5.90;80.40;;;;;;5053824;28;20190;-70
2023/02/25 10:39:13;;;;;;;8.73;3.22;;;5.90;80.80;;;;;;5054187;28;20272;-70
2023/02/25 10:41:40;;;;;;;4.25;2.72;;;5.90;80.60;;;;;;5054153;28;20225;-70
2023/02/25 10:44:10;;;;;;;5.53;3.25;;;5.90;79.90;;;;;;5054069;28;20273;-71
2023/02/25 10:46:45;;;;;;;5.78;2.40;;;5.90;78.80;;;;;;5053942;28;20229;-71
2023/02/25 10:49:20;;;;;;;5.05;3.00;;;5.90;79.10;;;;;;5053937;28;20225;-70
2023/02/25 10:52:01;;;;;;;4.72;2.95;;;5.90;79.50;;;;;;5053426;28;20201;-70
2023/02/25 10:54:30;;;;;;;5.65;3.53;;;5.90;80.70;;;;;;5053881;28;20277;-69
2023/02/25 10:57:01;;;;;;;12.27;3.38;;;5.90;80.80;;;;;;5053833;28;20277;-70
2023/02/25 10:59:32;;;;;;;7.65;3.08;;;5.90;80.50;;;;;;5053311;28;20544;-70
2023/02/25 11:02:00;;;;;;;9.30;3.67;;;5.90;80.00;;;;;;5052850;28;20226;-70
2023/02/25 11:04:46;;;;;;;6.55;4.20;;;5.80;80.50;;;;;;5053862;28;20281;-70
2023/02/25 11:07:27;;;;;;;5.15;3.45;;;5.80;81.40;;;;;;5053283;28;20201;-70
2023/02/25 11:10:15;;;;;;;9.60;4.50;;;5.80;80.80;;;;;;5053723;28;20229;-70
2023/02/25 11:12:44;;;;;;;6.38;3.60;;;5.80;80.80;;;;;;5053748;28;20191;-70
2023/02/25 11:15:40;;;;;;;10.00;3.60;;;5.70;78.50;;;;;;5053301;28;20725;-71
2023/02/25 11:18:18;;;;;;;7.03;4.50;;;5.60;79.20;;;;;;5040793;28;20237;-70
2023/02/25 11:20:53;;;;;;;7.35;3.65;;;5.60;79.50;;;;;;5053054;28;20232;-70
2023/02/25 11:23:23;;;;;;;5.63;3.60;;;5.50;79.00;;;;;;5053112;28;20624;-70
2023/02/25 11:25:52;;;;;;;7.50;3.33;;;5.50;78.90;;;;;;5053450;28;20190;-70
2023/02/25 11:28:27;;;;;;;4.95;3.13;;;5.40;78.40;;;;;;5053443;28;20252;-70
2023/02/25 11:31:03;;;;;;;5.57;3.53;;;5.40;76.90;;;;;;5052454;28;20189;-70
2023/02/25 11:33:34;;;;;;;5.25;2.90;;;5.40;78.00;;;;;;5053575;28;20229;-70
2023/02/25 11:36:03;;;;;;;14.73;4.32;;;5.40;78.80;;;;;;5053316;28;20233;-71
2023/02/25 11:38:34;;;;;;;11.82;6.00;;;5.50;79.10;;;;;;5053414;28;20273;-70
2023/02/25 11:41:01;;;;;;;7.28;3.50;;;5.50;79.20;;;;;;5053176;28;20277;-71
2023/02/25 11:43:38;;;;;;;11.85;3.90;;;5.50;79.60;;;;;;5053191;28;20308;-70
2023/02/25 11:46:08;;;;;;;4.90;3.05;;;5.50;79.40;;;;;;5051410;28;20194;-70
2023/02/25 11:48:47;;;;;;;5.18;2.20;;;5.60;78.90;;;;;;5053159;28;20279;-71
2023/02/25 11:51:26;;;;;;;5.85;2.40;;;5.60;77.90;;;;;;5052861;28;20605;-70
2023/02/25 11:54:24;;;;;;;6.07;3.15;;;5.70;77.30;;;;;;5053135;28;20225;-70
2023/02/25 11:56:55;;;;;;;18.23;6.95;;;5.70;77.30;;;;;;5040550;28;20699;-70
2023/02/25 11:59:33;;;;;;;12.93;5.60;;;5.70;76.70;;;;;;5052603;28;20280;-70
2023/02/25 12:02:27;;;;;;;5.68;3.65;;;5.70;77.20;;;;;;5052583;28;20275;-69
2023/02/25 12:05:42;;;;;;;17.00;11.18;;;5.60;77.10;;;;;;5050165;28;20194;-70
2023/02/25 12:08:44;;;;;;;12.95;6.05;;;5.60;77.00;;;;;;5030312;28;20197;-70
2023/02/25 12:11:57;;;;;;;11.82;5.22;;;5.50;76.70;;;;;;5030308;28;20198;-70
2023/02/25 12:14:59;;;;;;;13.75;7.28;;;5.40;76.80;;;;;;5052377;28;20194;-70
2023/02/25 12:17:59;;;;;;;10.50;4.70;;;5.30;77.50;;;;;;5052773;28;20519;-70
2023/02/25 12:20:54;;;;;;;8.73;4.78;;;5.20;78.10;;;;;;5046891;28;20198;-73
2023/02/25 12:24:21;;;;;;;9.68;4.10;;;5.20;77.90;;;;;;5052549;28;20233;-72
2023/02/25 12:27:08;;;;;;;10.35;6.72;;;5.10;78.50;;;;;;5029975;28;20191;-70
2023/02/25 12:29:54;;;;;;;6.20;3.95;;;5.10;78.20;;;;;;5030074;28;20273;-70
2023/02/25 12:32:51;;;;;;;7.60;3.83;;;5.00;79.80;;;;;;5045595;28;20190;-70
2023/02/25 12:35:49;;;;;;;9.15;5.05;;;4.90;80.10;;;;;;5052383;28;20194;-70
2023/02/25 12:38:59;;;;;;;9.82;5.13;;;4.90;81.60;;;;;;5052648;28;20273;-69
2023/02/25 12:41:46;;;;;;;9.25;5.20;;;4.90;81.40;;;;;;5052186;28;20190;-70
2023/02/25 12:44:47;;;;;;;10.40;6.45;;;4.90;82.30;;;;;;5052116;28;20249;-70
2023/02/25 12:47:30;;;;;;;6.10;4.15;;;4.90;82.40;;;;;;5052544;28;20190;-70
2023/02/25 12:50:18;;;;;;;13.30;5.72;;;4.90;82.80;;;;;;5052495;28;20198;-69
2023/02/25 12:53:08;;;;;;;8.40;4.40;;;4.90;82.80;;;;;;5047430;28;20190;-70
2023/02/25 12:55:56;;;;;;;8.68;6.07;;;4.90;83.10;;;;;;5051485;28;20307;-69
2023/02/25 12:58:43;;;;;;;11.38;4.45;;;4.80;83.30;;;;;;5052167;28;20241;-70
2023/02/25 13:01:47;;;;;;;13.68;6.47;;;4.90;82.60;;;;;;5052005;28;20597;-70
2023/02/25 13:04:40;;;;;;;8.88;5.53;;;4.90;83.30;;;;;;5051433;28;20253;-70
2023/02/25 13:07:40;;;;;;;14.52;6.05;;;5.00;81.40;;;;;;5052139;28;20237;-70
2023/02/25 13:10:29;;;;;;;11.75;4.75;;;5.00;81.80;;;;;;5044569;28;20202;-70
2023/02/25 13:13:09;;;;;;;9.52;4.40;;;5.00;81.10;;;;;;5051960;28;20285;-70
2023/02/25 13:15:49;;;;;;;6.32;4.07;;;5.00;82.70;;;;;;5055212;28;20633;-70
2023/02/25 13:18:26;;;;;;;6.95;3.75;;;5.00;83.50;;;;;;5055753;28;20200;-70
2023/02/25 13:21:21;;;;;;;10.73;3.47;;;5.20;83.50;;;;;;5055675;28;20194;-70
2023/02/25 13:24:06;;;;;;;7.93;4.40;;;5.30;81.20;;;;;;5053849;28;20260;-70
2023/02/25 13:26:56;;;;;;;11.02;5.03;;;5.40;80.50;;;;;;5055480;28;20273;-72